sensor_id;sensor_type;location;lat;lon;timestamp;P1;durP1;ratioP1;P2;durP2;ratioP2
73454;SDS011;61690;51.824;6.306;2023-03-14T00:03:39;7.45;;;2.80;;
73454;SDS011;61690;51.824;6.306;2023-03-14T00:06:05;7.13;;;3.00;;
73454;SDS011;61690;51.824;6.306;2023-03-14T00:08:31;8.35;;;3.38;;
73454;SDS011;61690;51.824;6.306;2023-03-14T00:10:57;6.27;;;2.90;;
73454;SDS011;61690;51.824;6.306;2023-03-14T00:13:25;6.85;;;2.97;;
73454;SDS011;61690;51.824;6.306;2023-03-14T00:15:50;6.93;;;3.30;;
73454;SDS011;61690;51.824;6.306;2023-03-14T00:18:15;7.40;;;2.90;;
73454;SDS011;61690;51.824;6.306;2023-03-14T00:20:40;7.43;;;3.33;;
73454;SDS011;61690;51.824;6.306;2023-03-14T00:23:06;7.70;;;3.20;;
73454;SDS011;61690;51.824;6.306;2023-03-14T00:25:31;8.50;;;3.53;;
73454;SDS011;61690;51.824;6.306;2023-03-14T00:27:57;5.63;;;3.00;;
73454;SDS011;61690;51.824;6.306;2023-03-14T00:30:22;6.70;;;3.30;;
73454;SDS011;61690;51.824;6.306;2023-03-14T00:32:47;5.93;;;3.37;;
73454;SDS011;61690;51.824;6.306;2023-03-14T00:35:13;7.43;;;3.17;;
73454;SDS011;61690;51.824;6.306;2023-03-14T00:37:38;6.50;;;3.67;;
73454;SDS011;61690;51.824;6.306;2023-03-14T00:40:03;7.70;;;3.40;;
73454;SDS011;61690;51.824;6.306;2023-03-14T00:42:31;6.67;;;3.40;;
73454;SDS011;61690;51.824;6.306;2023-03-14T00:44:57;7.57;;;3.40;;
73454;SDS011;61690;51.824;6.306;2023-03-14T00:47:22;5.93;;;2.87;;
73454;SDS011;61690;51.824;6.306;2023-03-14T00:49:47;7.50;;;3.30;;
73454;SDS011;61690;51.824;6.306;2023-03-14T00:52:13;6.27;;;3.30;;
73454;SDS011;61690;51.824;6.306;2023-03-14T00:54:38;8.07;;;3.42;;
73454;SDS011;61690;51.824;6.306;2023-03-14T00:57:03;8.23;;;3.90;;
73454;SDS011;61690;51.824;6.306;2023-03-14T00:59:29;7.60;;;3.70;;
73454;SDS011;61690;51.824;6.306;2023-03-14T01:01:54;7.17;;;3.53;;
73454;SDS011;61690;51.824;6.306;2023-03-14T01:04:19;8.73;;;3.40;;
73454;SDS011;61690;51.824;6.306;2023-03-14T01:06:44;7.00;;;3.40;;
73454;SDS011;61690;51.824;6.306;2023-03-14T01:09:10;6.73;;;3.17;;
73454;SDS011;61690;51.824;6.306;2023-03-14T01:11:35;7.07;;;3.70;;
73454;SDS011;61690;51.824;6.306;2023-03-14T01:14:01;6.50;;;3.50;;
73454;SDS011;61690;51.824;6.306;2023-03-14T01:16:28;7.25;;;3.45;;
73454;SDS011;61690;51.824;6.306;2023-03-14T01:18:54;8.17;;;3.50;;
73454;SDS011;61690;51.824;6.306;2023-03-14T01:21:23;6.72;;;3.58;;
73454;SDS011;61690;51.824;6.306;2023-03-14T01:23:51;6.77;;;4.23;;
73454;SDS011;61690;51.824;6.306;2023-03-14T01:26:18;6.82;;;3.58;;
73454;SDS011;61690;51.824;6.306;2023-03-14T01:28:45;6.85;;;3.50;;
73454;SDS011;61690;51.824;6.306;2023-03-14T01:31:12;6.65;;;3.90;;
73454;SDS011;61690;51.824;6.306;2023-03-14T01:33:37;6.47;;;3.50;;
73454;SDS011;61690;51.824;6.306;2023-03-14T01:36:04;7.75;;;4.20;;
73454;SDS011;61690;51.824;6.306;2023-03-14T01:38:31;7.85;;;4.15;;
73454;SDS011;61690;51.824;6.306;2023-03-14T01:40:58;8.13;;;4.10;;
73454;SDS011;61690;51.824;6.306;2023-03-14T01:43:23;6.90;;;4.00;;
73454;SDS011;61690;51.824;6.306;2023-03-14T01:48:43;7.32;;;3.67;;
73454;SDS011;61690;51.824;6.306;2023-03-14T01:51:18;8.02;;;3.90;;
73454;SDS011;61690;51.824;6.306;2023-03-14T01:53:49;7.70;;;4.10;;
73454;SDS011;61690;51.824;6.306;2023-03-14T01:56:16;6.50;;;4.13;;
73454;SDS011;61690;51.824;6.306;2023-03-14T01:58:44;7.82;;;3.90;;
73454;SDS011;61690;51.824;6.306;2023-03-14T02:01:12;7.82;;;3.70;;
73454;SDS011;61690;51.824;6.306;2023-03-14T02:03:45;8.43;;;4.70;;
73454;SDS011;61690;51.824;6.306;2023-03-14T02:06:15;6.97;;;3.95;;
73454;SDS011;61690;51.824;6.306;2023-03-14T02:08:44;8.03;;;4.03;;
73454;SDS011;61690;51.824;6.306;2023-03-14T02:11:13;8.20;;;4.70;;
73454;SDS011;61690;51.824;6.306;2023-03-14T02:13:38;8.20;;;4.00;;
73454;SDS011;61690;51.824;6.306;2023-03-14T02:16:04;7.43;;;4.37;;
73454;SDS011;61690;51.824;6.306;2023-03-14T02:18:29;7.00;;;4.10;;
73454;SDS011;61690;51.824;6.306;2023-03-14T02:21:04;6.93;;;4.40;;
73454;SDS011;61690;51.824;6.306;2023-03-14T02:26:28;6.80;;;4.15;;
73454;SDS011;61690;51.824;6.306;2023-03-14T02:29:17;7.68;;;4.45;;
73454;SDS011;61690;51.824;6.306;2023-03-14T02:31:43;7.07;;;4.07;;
73454;SDS011;61690;51.824;6.306;2023-03-14T02:34:08;7.00;;;4.50;;
73454;SDS011;61690;51.824;6.306;2023-03-14T02:36:33;9.27;;;4.47;;
73454;SDS011;61690;51.824;6.306;2023-03-14T02:39:03;7.78;;;4.50;;
73454;SDS011;61690;51.824;6.306;2023-03-14T02:41:33;7.65;;;4.35;;
73454;SDS011;61690;51.824;6.306;2023-03-14T02:43:59;6.80;;;4.30;;
73454;SDS011;61690;51.824;6.306;2023-03-14T02:46:24;7.10;;;5.00;;
73454;SDS011;61690;51.824;6.306;2023-03-14T02:48:55;7.07;;;4.75;;
73454;SDS011;61690;51.824;6.306;2023-03-14T02:51:26;9.40;;;4.38;;
73454;SDS011;61690;51.824;6.306;2023-03-14T02:53:53;7.57;;;4.60;;
73454;SDS011;61690;51.824;6.306;2023-03-14T02:56:18;8.73;;;4.70;;
73454;SDS011;61690;51.824;6.306;2023-03-14T02:58:44;7.30;;;4.50;;
73454;SDS011;61690;51.824;6.306;2023-03-14T03:01:09;7.30;;;4.47;;
73454;SDS011;61690;51.824;6.306;2023-03-14T03:03:34;7.90;;;4.70;;
73454;SDS011;61690;51.824;6.306;2023-03-14T03:06:00;6.88;;;4.40;;
73454;SDS011;61690;51.824;6.306;2023-03-14T03:08:26;7.77;;;4.73;;
73454;SDS011;61690;51.824;6.306;2023-03-14T03:10:52;8.10;;;4.75;;
73454;SDS011;61690;51.824;6.306;2023-03-14T03:13:18;9.63;;;5.00;;
73454;SDS011;61690;51.824;6.306;2023-03-14T03:15:44;7.43;;;4.93;;
73454;SDS011;61690;51.824;6.306;2023-03-14T03:18:09;9.47;;;4.80;;
73454;SDS011;61690;51.824;6.306;2023-03-14T03:20:35;7.75;;;4.70;;
73454;SDS011;61690;51.824;6.306;2023-03-14T03:23:01;8.77;;;4.47;;
73454;SDS011;61690;51.824;6.306;2023-03-14T03:25:26;8.70;;;5.13;;
73454;SDS011;61690;51.824;6.306;2023-03-14T03:27:52;8.00;;;5.10;;
73454;SDS011;61690;51.824;6.306;2023-03-14T03:30:18;7.38;;;5.10;;
73454;SDS011;61690;51.824;6.306;2023-03-14T03:32:43;8.47;;;4.63;;
73454;SDS011;61690;51.824;6.306;2023-03-14T03:35:08;8.20;;;5.53;;
73454;SDS011;61690;51.824;6.306;2023-03-14T03:37:34;7.68;;;4.90;;
73454;SDS011;61690;51.824;6.306;2023-03-14T03:40:00;7.87;;;4.67;;
73454;SDS011;61690;51.824;6.306;2023-03-14T03:42:26;8.15;;;5.10;;
73454;SDS011;61690;51.824;6.306;2023-03-14T03:44:52;7.63;;;4.40;;
73454;SDS011;61690;51.824;6.306;2023-03-14T03:47:17;7.55;;;4.80;;
73454;SDS011;61690;51.824;6.306;2023-03-14T03:49:42;8.23;;;5.30;;
73454;SDS011;61690;51.824;6.306;2023-03-14T03:52:07;8.10;;;5.07;;
73454;SDS011;61690;51.824;6.306;2023-03-14T03:54:34;8.52;;;5.38;;
73454;SDS011;61690;51.824;6.306;2023-03-14T03:56:59;8.10;;;5.30;;
73454;SDS011;61690;51.824;6.306;2023-03-14T03:59:25;8.97;;;5.30;;
73454;SDS011;61690;51.824;6.306;2023-03-14T04:01:50;7.73;;;5.20;;
73454;SDS011;61690;51.824;6.306;2023-03-14T04:04:15;7.83;;;5.23;;
73454;SDS011;61690;51.824;6.306;2023-03-14T04:06:41;8.30;;;4.88;;
73454;SDS011;61690;51.824;6.306;2023-03-14T04:09:07;7.63;;;5.33;;
73454;SDS011;61690;51.824;6.306;2023-03-14T04:11:33;7.30;;;4.95;;
73454;SDS011;61690;51.824;6.306;2023-03-14T04:13:58;7.97;;;4.93;;
73454;SDS011;61690;51.824;6.306;2023-03-14T04:16:24;7.63;;;5.10;;
73454;SDS011;61690;51.824;6.306;2023-03-14T04:18:50;7.68;;;5.00;;
73454;SDS011;61690;51.824;6.306;2023-03-14T04:21:16;7.47;;;5.18;;
73454;SDS011;61690;51.824;6.306;2023-03-14T04:23:41;8.00;;;5.40;;
73454;SDS011;61690;51.824;6.306;2023-03-14T04:26:07;8.47;;;5.50;;
73454;SDS011;61690;51.824;6.306;2023-03-14T04:28:32;7.60;;;4.87;;
73454;SDS011;61690;51.824;6.306;2023-03-14T04:30:58;8.30;;;4.50;;
73454;SDS011;61690;51.824;6.306;2023-03-14T04:33:23;7.80;;;4.50;;
73454;SDS011;61690;51.824;6.306;2023-03-14T04:35:49;8.60;;;4.88;;
73454;SDS011;61690;51.824;6.306;2023-03-14T04:38:17;8.27;;;4.90;;
73454;SDS011;61690;51.824;6.306;2023-03-14T04:40:43;9.13;;;5.57;;
73454;SDS011;61690;51.824;6.306;2023-03-14T04:43:09;9.13;;;5.40;;
73454;SDS011;61690;51.824;6.306;2023-03-14T04:45:35;7.88;;;5.47;;
73454;SDS011;61690;51.824;6.306;2023-03-14T04:48:01;8.00;;;5.10;;
73454;SDS011;61690;51.824;6.306;2023-03-14T04:50:26;7.80;;;5.10;;
73454;SDS011;61690;51.824;6.306;2023-03-14T04:52:52;6.77;;;4.80;;
73454;SDS011;61690;51.824;6.306;2023-03-14T04:55:17;9.60;;;5.43;;
73454;SDS011;61690;51.824;6.306;2023-03-14T04:57:42;8.10;;;5.40;;
73454;SDS011;61690;51.824;6.306;2023-03-14T05:00:08;8.23;;;5.43;;
73454;SDS011;61690;51.824;6.306;2023-03-14T05:02:34;7.65;;;5.07;;
73454;SDS011;61690;51.824;6.306;2023-03-14T05:04:59;8.52;;;5.65;;
73454;SDS011;61690;51.824;6.306;2023-03-14T05:07:25;8.10;;;5.60;;
73454;SDS011;61690;51.824;6.306;2023-03-14T05:09:50;9.07;;;5.20;;
73454;SDS011;61690;51.824;6.306;2023-03-14T05:12:15;8.00;;;5.20;;
73454;SDS011;61690;51.824;6.306;2023-03-14T05:14:41;7.70;;;4.87;;
73454;SDS011;61690;51.824;6.306;2023-03-14T05:17:06;8.33;;;5.43;;
73454;SDS011;61690;51.824;6.306;2023-03-14T05:19:31;9.77;;;5.10;;
73454;SDS011;61690;51.824;6.306;2023-03-14T05:21:57;8.13;;;5.40;;
73454;SDS011;61690;51.824;6.306;2023-03-14T05:24:22;8.47;;;5.50;;
73454;SDS011;61690;51.824;6.306;2023-03-14T05:26:47;8.63;;;5.47;;
73454;SDS011;61690;51.824;6.306;2023-03-14T05:29:12;8.83;;;5.60;;
73454;SDS011;61690;51.824;6.306;2023-03-14T05:31:38;10.27;;;5.83;;
73454;SDS011;61690;51.824;6.306;2023-03-14T05:34:03;7.30;;;5.20;;
73454;SDS011;61690;51.824;6.306;2023-03-14T05:36:29;9.50;;;6.10;;
73454;SDS011;61690;51.824;6.306;2023-03-14T05:38:54;15.13;;;6.38;;
73454;SDS011;61690;51.824;6.306;2023-03-14T05:41:19;9.67;;;6.53;;
73454;SDS011;61690;51.824;6.306;2023-03-14T05:43:45;9.27;;;6.03;;
73454;SDS011;61690;51.824;6.306;2023-03-14T05:46:10;9.70;;;6.93;;
73454;SDS011;61690;51.824;6.306;2023-03-14T05:48:35;9.47;;;5.67;;
73454;SDS011;61690;51.824;6.306;2023-03-14T05:51:00;11.83;;;6.23;;
73454;SDS011;61690;51.824;6.306;2023-03-14T05:53:26;10.00;;;6.30;;
73454;SDS011;61690;51.824;6.306;2023-03-14T05:55:52;9.87;;;5.93;;
73454;SDS011;61690;51.824;6.306;2023-03-14T05:58:17;9.40;;;5.63;;
73454;SDS011;61690;51.824;6.306;2023-03-14T06:00:43;9.75;;;5.90;;
73454;SDS011;61690;51.824;6.306;2023-03-14T06:03:08;10.23;;;6.83;;
73454;SDS011;61690;51.824;6.306;2023-03-14T06:05:33;10.63;;;6.37;;
73454;SDS011;61690;51.824;6.306;2023-03-14T06:07:59;10.13;;;6.10;;
73454;SDS011;61690;51.824;6.306;2023-03-14T06:10:24;9.03;;;5.53;;
73454;SDS011;61690;51.824;6.306;2023-03-14T06:12:49;10.87;;;6.00;;
73454;SDS011;61690;51.824;6.306;2023-03-14T06:15:15;10.73;;;6.40;;
73454;SDS011;61690;51.824;6.306;2023-03-14T06:17:40;9.50;;;5.87;;
73454;SDS011;61690;51.824;6.306;2023-03-14T06:20:05;10.87;;;6.53;;
73454;SDS011;61690;51.824;6.306;2023-03-14T06:22:31;15.40;;;6.45;;
73454;SDS011;61690;51.824;6.306;2023-03-14T06:24:56;9.40;;;5.80;;
73454;SDS011;61690;51.824;6.306;2023-03-14T06:27:22;9.33;;;6.30;;
73454;SDS011;61690;51.824;6.306;2023-03-14T06:29:47;9.87;;;5.67;;
73454;SDS011;61690;51.824;6.306;2023-03-14T06:32:12;8.77;;;5.97;;
73454;SDS011;61690;51.824;6.306;2023-03-14T06:34:37;10.00;;;5.30;;
73454;SDS011;61690;51.824;6.306;2023-03-14T06:37:03;10.80;;;6.00;;
73454;SDS011;61690;51.824;6.306;2023-03-14T06:39:29;8.65;;;6.25;;
73454;SDS011;61690;51.824;6.306;2023-03-14T06:41:55;12.27;;;6.18;;
73454;SDS011;61690;51.824;6.306;2023-03-14T06:44:20;9.00;;;6.20;;
73454;SDS011;61690;51.824;6.306;2023-03-14T06:46:45;11.97;;;6.37;;
73454;SDS011;61690;51.824;6.306;2023-03-14T06:49:11;9.93;;;6.70;;
73454;SDS011;61690;51.824;6.306;2023-03-14T06:51:36;11.30;;;6.93;;
73454;SDS011;61690;51.824;6.306;2023-03-14T06:54:01;9.80;;;6.20;;
73454;SDS011;61690;51.824;6.306;2023-03-14T06:56:27;12.27;;;6.80;;
73454;SDS011;61690;51.824;6.306;2023-03-14T06:58:52;11.93;;;6.63;;
73454;SDS011;61690;51.824;6.306;2023-03-14T07:01:22;11.13;;;6.50;;
73454;SDS011;61690;51.824;6.306;2023-03-14T07:03:50;13.55;;;7.15;;
73454;SDS011;61690;51.824;6.306;2023-03-14T07:06:15;13.90;;;7.57;;
73454;SDS011;61690;51.824;6.306;2023-03-14T07:08:40;10.93;;;6.93;;
73454;SDS011;61690;51.824;6.306;2023-03-14T07:11:07;12.10;;;8.07;;
73454;SDS011;61690;51.824;6.306;2023-03-14T07:13:32;11.93;;;8.93;;
73454;SDS011;61690;51.824;6.306;2023-03-14T07:15:57;13.43;;;9.65;;
73454;SDS011;61690;51.824;6.306;2023-03-14T07:18:23;14.23;;;9.10;;
73454;SDS011;61690;51.824;6.306;2023-03-14T07:20:48;18.30;;;9.40;;
73454;SDS011;61690;51.824;6.306;2023-03-14T07:23:13;12.30;;;8.47;;
73454;SDS011;61690;51.824;6.306;2023-03-14T07:25:39;14.47;;;9.83;;
73454;SDS011;61690;51.824;6.306;2023-03-14T07:28:04;17.13;;;9.33;;
73454;SDS011;61690;51.824;6.306;2023-03-14T07:30:29;14.07;;;9.30;;
73454;SDS011;61690;51.824;6.306;2023-03-14T07:32:55;12.80;;;9.20;;
73454;SDS011;61690;51.824;6.306;2023-03-14T07:35:20;13.30;;;9.37;;
73454;SDS011;61690;51.824;6.306;2023-03-14T07:37:45;16.50;;;9.20;;
73454;SDS011;61690;51.824;6.306;2023-03-14T07:40:11;13.63;;;9.10;;
73454;SDS011;61690;51.824;6.306;2023-03-14T07:42:39;13.50;;;9.57;;
73454;SDS011;61690;51.824;6.306;2023-03-14T07:45:05;13.50;;;9.30;;
73454;SDS011;61690;51.824;6.306;2023-03-14T07:47:31;14.77;;;9.45;;
73454;SDS011;61690;51.824;6.306;2023-03-14T07:49:56;13.10;;;9.27;;
73454;SDS011;61690;51.824;6.306;2023-03-14T07:52:21;13.43;;;8.50;;
73454;SDS011;61690;51.824;6.306;2023-03-14T07:54:47;17.03;;;8.77;;
73454;SDS011;61690;51.824;6.306;2023-03-14T07:57:12;12.73;;;8.50;;
73454;SDS011;61690;51.824;6.306;2023-03-14T07:59:37;13.43;;;9.17;;
73454;SDS011;61690;51.824;6.306;2023-03-14T08:02:03;13.10;;;8.73;;
73454;SDS011;61690;51.824;6.306;2023-03-14T08:04:30;13.07;;;8.95;;
73454;SDS011;61690;51.824;6.306;2023-03-14T08:06:55;14.33;;;9.30;;
73454;SDS011;61690;51.824;6.306;2023-03-14T08:09:21;14.10;;;9.07;;
73454;SDS011;61690;51.824;6.306;2023-03-14T08:11:46;14.33;;;9.53;;
73454;SDS011;61690;51.824;6.306;2023-03-14T08:14:11;12.63;;;9.03;;
73454;SDS011;61690;51.824;6.306;2023-03-14T08:16:36;11.98;;;9.38;;
73454;SDS011;61690;51.824;6.306;2023-03-14T08:19:02;11.67;;;8.97;;
73454;SDS011;61690;51.824;6.306;2023-03-14T08:21:27;11.03;;;8.40;;
73454;SDS011;61690;51.824;6.306;2023-03-14T08:23:52;13.43;;;9.20;;
73454;SDS011;61690;51.824;6.306;2023-03-14T08:26:18;12.53;;;8.90;;
73454;SDS011;61690;51.824;6.306;2023-03-14T08:28:43;13.77;;;9.07;;
73454;SDS011;61690;51.824;6.306;2023-03-14T08:31:08;11.53;;;8.50;;
73454;SDS011;61690;51.824;6.306;2023-03-14T08:33:34;13.27;;;8.97;;
73454;SDS011;61690;51.824;6.306;2023-03-14T08:35:59;11.15;;;8.80;;
73454;SDS011;61690;51.824;6.306;2023-03-14T08:38:25;14.17;;;9.07;;
73454;SDS011;61690;51.824;6.306;2023-03-14T08:40:57;13.15;;;8.80;;
73454;SDS011;61690;51.824;6.306;2023-03-14T08:43:24;12.43;;;8.57;;
73454;SDS011;61690;51.824;6.306;2023-03-14T08:45:49;11.77;;;8.67;;
73454;SDS011;61690;51.824;6.306;2023-03-14T08:48:14;12.13;;;8.43;;
73454;SDS011;61690;51.824;6.306;2023-03-14T08:50:40;11.90;;;8.77;;
73454;SDS011;61690;51.824;6.306;2023-03-14T08:53:05;12.27;;;8.80;;
73454;SDS011;61690;51.824;6.306;2023-03-14T08:55:30;13.23;;;9.33;;
73454;SDS011;61690;51.824;6.306;2023-03-14T08:57:55;12.07;;;8.10;;
73454;SDS011;61690;51.824;6.306;2023-03-14T09:00:21;12.90;;;8.73;;
73454;SDS011;61690;51.824;6.306;2023-03-14T09:02:46;10.73;;;8.10;;
73454;SDS011;61690;51.824;6.306;2023-03-14T09:05:12;12.33;;;8.07;;
73454;SDS011;61690;51.824;6.306;2023-03-14T09:07:38;11.25;;;8.93;;
73454;SDS011;61690;51.824;6.306;2023-03-14T09:10:04;12.80;;;8.30;;
73454;SDS011;61690;51.824;6.306;2023-03-14T09:12:31;13.13;;;8.10;;
73454;SDS011;61690;51.824;6.306;2023-03-14T09:14:56;13.67;;;8.50;;
73454;SDS011;61690;51.824;6.306;2023-03-14T09:17:21;11.68;;;8.52;;
73454;SDS011;61690;51.824;6.306;2023-03-14T09:19:46;14.17;;;8.30;;
73454;SDS011;61690;51.824;6.306;2023-03-14T09:22:12;12.80;;;8.43;;
73454;SDS011;61690;51.824;6.306;2023-03-14T09:24:37;11.73;;;8.63;;
73454;SDS011;61690;51.824;6.306;2023-03-14T09:27:02;13.47;;;9.57;;
73454;SDS011;61690;51.824;6.306;2023-03-14T09:29:28;10.90;;;8.57;;
73454;SDS011;61690;51.824;6.306;2023-03-14T09:31:53;10.90;;;8.50;;
73454;SDS011;61690;51.824;6.306;2023-03-14T09:34:18;11.30;;;8.27;;
73454;SDS011;61690;51.824;6.306;2023-03-14T09:36:44;12.77;;;8.37;;
73454;SDS011;61690;51.824;6.306;2023-03-14T09:39:10;11.30;;;8.47;;
73454;SDS011;61690;51.824;6.306;2023-03-14T09:41:37;12.52;;;8.50;;
73454;SDS011;61690;51.824;6.306;2023-03-14T09:44:30;12.23;;;8.07;;
73454;SDS011;61690;51.824;6.306;2023-03-14T09:46:56;14.00;;;8.35;;
73454;SDS011;61690;51.824;6.306;2023-03-14T09:49:34;10.02;;;7.70;;
73454;SDS011;61690;51.824;6.306;2023-03-14T09:52:05;12.30;;;7.87;;
73454;SDS011;61690;51.824;6.306;2023-03-14T09:55:20;10.75;;;7.80;;
73454;SDS011;61690;51.824;6.306;2023-03-14T09:57:32;13.18;;;8.00;;
73454;SDS011;61690;51.824;6.306;2023-03-14T10:00:02;11.15;;;7.32;;
73454;SDS011;61690;51.824;6.306;2023-03-14T10:02:39;12.07;;;7.90;;
73454;SDS011;61690;51.824;6.306;2023-03-14T10:05:16;10.47;;;7.50;;
73454;SDS011;61690;51.824;6.306;2023-03-14T10:07:43;10.77;;;7.30;;
73454;SDS011;61690;51.824;6.306;2023-03-14T10:10:19;10.30;;;7.82;;
73454;SDS011;61690;51.824;6.306;2023-03-14T10:12:47;10.63;;;7.15;;
73454;SDS011;61690;51.824;6.306;2023-03-14T10:15:30;11.23;;;7.97;;
73454;SDS011;61690;51.824;6.306;2023-03-14T10:17:58;11.02;;;7.25;;
73454;SDS011;61690;51.824;6.306;2023-03-14T10:20:27;10.50;;;7.53;;
73454;SDS011;61690;51.824;6.306;2023-03-14T10:22:59;9.85;;;7.60;;
73454;SDS011;61690;51.824;6.306;2023-03-14T10:25:34;9.23;;;7.40;;
73454;SDS011;61690;51.824;6.306;2023-03-14T10:28:02;12.30;;;7.60;;
73454;SDS011;61690;51.824;6.306;2023-03-14T10:30:30;12.18;;;7.80;;
73454;SDS011;61690;51.824;6.306;2023-03-14T10:35:43;11.83;;;6.87;;
73454;SDS011;61690;51.824;6.306;2023-03-14T10:38:13;9.27;;;7.00;;
73454;SDS011;61690;51.824;6.306;2023-03-14T10:40:42;11.52;;;6.80;;
73454;SDS011;61690;51.824;6.306;2023-03-14T10:43:15;10.53;;;7.20;;
73454;SDS011;61690;51.824;6.306;2023-03-14T10:45:44;9.93;;;7.25;;
73454;SDS011;61690;51.824;6.306;2023-03-14T10:48:18;9.35;;;6.93;;
73454;SDS011;61690;51.824;6.306;2023-03-14T10:53:39;9.82;;;6.75;;
73454;SDS011;61690;51.824;6.306;2023-03-14T10:56:19;9.50;;;6.47;;
73454;SDS011;61690;51.824;6.306;2023-03-14T10:58:46;10.02;;;6.65;;
73454;SDS011;61690;51.824;6.306;2023-03-14T11:01:24;10.48;;;6.93;;
73454;SDS011;61690;51.824;6.306;2023-03-14T11:04:06;10.15;;;6.50;;
73454;SDS011;61690;51.824;6.306;2023-03-14T11:06:56;8.95;;;6.57;;
73454;SDS011;61690;51.824;6.306;2023-03-14T11:12:35;9.13;;;6.40;;
73454;SDS011;61690;51.824;6.306;2023-03-14T11:15:25;10.00;;;6.80;;
73454;SDS011;61690;51.824;6.306;2023-03-14T11:18:16;8.80;;;6.63;;
73454;SDS011;61690;51.824;6.306;2023-03-14T11:21:13;12.10;;;7.05;;
73454;SDS011;61690;51.824;6.306;2023-03-14T11:26:43;8.63;;;6.13;;
73454;SDS011;61690;51.824;6.306;2023-03-14T11:29:21;10.07;;;6.88;;
73454;SDS011;61690;51.824;6.306;2023-03-14T11:31:55;9.25;;;6.47;;
73454;SDS011;61690;51.824;6.306;2023-03-14T11:34:29;11.13;;;6.15;;
73454;SDS011;61690;51.824;6.306;2023-03-14T11:37:04;14.83;;;6.43;;
73454;SDS011;61690;51.824;6.306;2023-03-14T11:39:39;14.02;;;6.53;;
73454;SDS011;61690;51.824;6.306;2023-03-14T11:42:08;10.68;;;6.63;;
73454;SDS011;61690;51.824;6.306;2023-03-14T11:44:38;9.00;;;5.63;;
73454;SDS011;61690;51.824;6.306;2023-03-14T11:47:09;8.52;;;5.68;;
73454;SDS011;61690;51.824;6.306;2023-03-14T11:49:43;9.13;;;5.97;;
73454;SDS011;61690;51.824;6.306;2023-03-14T11:54:53;11.45;;;5.70;;
73454;SDS011;61690;51.824;6.306;2023-03-14T11:57:23;8.30;;;5.82;;
73454;SDS011;61690;51.824;6.306;2023-03-14T12:13:12;8.45;;;6.10;;
73454;SDS011;61690;51.824;6.306;2023-03-14T12:15:40;10.23;;;5.70;;
73454;SDS011;61690;51.824;6.306;2023-03-14T12:18:19;9.90;;;5.70;;
73454;SDS011;61690;51.824;6.306;2023-03-14T12:20:51;7.75;;;5.85;;
73454;SDS011;61690;51.824;6.306;2023-03-14T12:23:19;7.95;;;5.38;;
73454;SDS011;61690;51.824;6.306;2023-03-14T12:25:45;17.38;;;6.03;;
73454;SDS011;61690;51.824;6.306;2023-03-14T12:28:20;9.13;;;5.63;;
73454;SDS011;61690;51.824;6.306;2023-03-14T12:30:54;7.25;;;4.93;;
73454;SDS011;61690;51.824;6.306;2023-03-14T12:33:21;8.30;;;5.40;;
73454;SDS011;61690;51.824;6.306;2023-03-14T12:35:57;8.57;;;5.28;;
73454;SDS011;61690;51.824;6.306;2023-03-14T12:41:38;9.07;;;5.43;;
73454;SDS011;61690;51.824;6.306;2023-03-14T12:46:53;7.28;;;4.68;;
73454;SDS011;61690;51.824;6.306;2023-03-14T12:49:18;10.37;;;5.10;;
73454;SDS011;61690;51.824;6.306;2023-03-14T12:51:44;9.53;;;5.37;;
73454;SDS011;61690;51.824;6.306;2023-03-14T12:54:13;8.93;;;5.40;;
73454;SDS011;61690;51.824;6.306;2023-03-14T13:06:00;7.95;;;4.82;;
73454;SDS011;61690;51.824;6.306;2023-03-14T13:08:35;9.13;;;4.90;;
73454;SDS011;61690;51.824;6.306;2023-03-14T13:11:08;7.93;;;4.70;;
73454;SDS011;61690;51.824;6.306;2023-03-14T13:13:40;9.43;;;5.40;;
73454;SDS011;61690;51.824;6.306;2023-03-14T13:16:20;9.57;;;5.20;;
73454;SDS011;61690;51.824;6.306;2023-03-14T13:18:50;9.47;;;4.87;;
73454;SDS011;61690;51.824;6.306;2023-03-14T13:21:25;8.98;;;4.65;;
73454;SDS011;61690;51.824;6.306;2023-03-14T13:23:59;8.30;;;4.90;;
73454;SDS011;61690;51.824;6.306;2023-03-14T13:26:37;7.18;;;4.80;;
73454;SDS011;61690;51.824;6.306;2023-03-14T13:29:08;7.53;;;4.57;;
73454;SDS011;61690;51.824;6.306;2023-03-14T13:31:56;7.50;;;4.80;;
73454;SDS011;61690;51.824;6.306;2023-03-14T13:34:24;8.15;;;4.95;;
73454;SDS011;61690;51.824;6.306;2023-03-14T13:36:52;8.45;;;4.75;;
73454;SDS011;61690;51.824;6.306;2023-03-14T13:39:22;11.82;;;5.15;;
73454;SDS011;61690;51.824;6.306;2023-03-14T13:41:53;8.00;;;4.60;;
73454;SDS011;61690;51.824;6.306;2023-03-14T13:44:24;9.00;;;4.80;;
73454;SDS011;61690;51.824;6.306;2023-03-14T13:46:52;7.68;;;4.60;;
73454;SDS011;61690;51.824;6.306;2023-03-14T13:49:24;8.35;;;4.75;;
73454;SDS011;61690;51.824;6.306;2023-03-14T13:51:51;7.03;;;4.40;;
73454;SDS011;61690;51.824;6.306;2023-03-14T13:54:21;8.57;;;4.70;;
73454;SDS011;61690;51.824;6.306;2023-03-14T13:56:47;6.80;;;4.50;;
73454;SDS011;61690;51.824;6.306;2023-03-14T13:59:23;7.43;;;4.30;;
73454;SDS011;61690;51.824;6.306;2023-03-14T14:01:50;8.80;;;4.20;;
73454;SDS011;61690;51.824;6.306;2023-03-14T14:04:18;7.23;;;4.40;;
73454;SDS011;61690;51.824;6.306;2023-03-14T14:06:50;8.02;;;4.50;;
73454;SDS011;61690;51.824;6.306;2023-03-14T14:09:26;7.82;;;3.97;;
73454;SDS011;61690;51.824;6.306;2023-03-14T14:11:58;6.97;;;4.28;;
73454;SDS011;61690;51.824;6.306;2023-03-14T14:16:56;10.73;;;4.30;;
73454;SDS011;61690;51.824;6.306;2023-03-14T14:19:23;8.65;;;4.30;;
73454;SDS011;61690;51.824;6.306;2023-03-14T14:21:52;9.30;;;4.22;;
73454;SDS011;61690;51.824;6.306;2023-03-14T14:24:18;7.93;;;4.15;;
73454;SDS011;61690;51.824;6.306;2023-03-14T14:26:51;7.15;;;4.10;;
73454;SDS011;61690;51.824;6.306;2023-03-14T14:29:28;6.70;;;3.70;;
73454;SDS011;61690;51.824;6.306;2023-03-14T14:32:00;6.68;;;3.90;;
73454;SDS011;61690;51.824;6.306;2023-03-14T14:34:26;7.10;;;3.83;;
73454;SDS011;61690;51.824;6.306;2023-03-14T14:36:52;9.13;;;4.13;;
73454;SDS011;61690;51.824;6.306;2023-03-14T14:39:19;7.00;;;4.00;;
73454;SDS011;61690;51.824;6.306;2023-03-14T14:41:47;8.18;;;3.95;;
73454;SDS011;61690;51.824;6.306;2023-03-14T14:44:13;8.70;;;4.20;;
73454;SDS011;61690;51.824;6.306;2023-03-14T14:46:43;7.22;;;4.28;;
73454;SDS011;61690;51.824;6.306;2023-03-14T14:49:10;7.03;;;4.13;;
73454;SDS011;61690;51.824;6.306;2023-03-14T14:51:40;7.75;;;3.75;;
73454;SDS011;61690;51.824;6.306;2023-03-14T14:54:12;8.27;;;4.47;;
73454;SDS011;61690;51.824;6.306;2023-03-14T14:56:50;7.50;;;3.63;;
73454;SDS011;61690;51.824;6.306;2023-03-14T14:59:18;8.85;;;4.25;;
73454;SDS011;61690;51.824;6.306;2023-03-14T15:01:47;8.35;;;3.83;;
73454;SDS011;61690;51.824;6.306;2023-03-14T15:04:13;7.47;;;3.55;;
73454;SDS011;61690;51.824;6.306;2023-03-14T15:06:42;7.57;;;4.10;;
73454;SDS011;61690;51.824;6.306;2023-03-14T15:09:10;7.40;;;3.80;;
73454;SDS011;61690;51.824;6.306;2023-03-14T15:11:36;8.40;;;4.07;;
73454;SDS011;61690;51.824;6.306;2023-03-14T15:14:02;6.38;;;3.72;;
73454;SDS011;61690;51.824;6.306;2023-03-14T15:16:29;6.40;;;3.80;;
73454;SDS011;61690;51.824;6.306;2023-03-14T15:18:59;7.80;;;4.03;;
73454;SDS011;61690;51.824;6.306;2023-03-14T15:21:30;7.75;;;3.95;;
73454;SDS011;61690;51.824;6.306;2023-03-14T15:23:56;6.70;;;3.70;;
73454;SDS011;61690;51.824;6.306;2023-03-14T15:26:23;8.60;;;2.33;;
73454;SDS011;61690;51.824;6.306;2023-03-14T15:28:50;8.15;;;2.60;;
73454;SDS011;61690;51.824;6.306;2023-03-14T15:31:16;8.87;;;2.60;;
73454;SDS011;61690;51.824;6.306;2023-03-14T15:33:43;6.68;;;2.20;;
73454;SDS011;61690;51.824;6.306;2023-03-14T15:36:31;7.53;;;2.67;;
73454;SDS011;61690;51.824;6.306;2023-03-14T15:38:57;8.38;;;3.40;;
73454;SDS011;61690;51.824;6.306;2023-03-14T15:41:23;8.45;;;3.00;;